Time;durP1;ratioP1;P1;durP2;ratioP2;P2;SDS_P1;SDS_P2;PMS_P1;PMS_P2;Temp;Humidity;BMP_temperature;BMP_pressure;BME280_temperature;BME280_humidity;BME280_pressure;Samples;Min_cycle;Max_cycle;Signal;HPM_P1;HPM_P2
2021/07/15 00:00:54;;;;;;;6.90;4.25;;;;;;;21.49;70.10;100658.63;5011400;28;20030;-76
2021/07/15 00:03:22;;;;;;;9.07;4.63;;;;;;;21.59;69.22;100670.91;4995064;28;20101;-76
2021/07/15 00:05:48;;;;;;;6.40;4.43;;;;;;;21.63;69.35;100678.78;5013739;28;20033;-76
2021/07/15 00:08:18;;;;;;;7.35;4.53;;;;;;;21.64;69.16;100685.81;4999046;28;20044;-76
2021/07/15 00:10:50;;;;;;;7.53;3.80;;;;;;;21.60;69.43;100685.75;4999116;28;20456;-76
2021/07/15 00:13:17;;;;;;;7.05;3.90;;;;;;;21.55;69.63;100690.09;5016497;28;20044;-76
2021/07/15 00:15:45;;;;;;;5.18;3.53;;;;;;;21.49;70.05;100697.94;5016330;28;20585;-76
2021/07/15 00:18:12;;;;;;;6.25;3.15;;;;;;;21.44;69.81;100690.06;5016456;28;20486;-76
2021/07/15 00:20:43;;;;;;;9.88;3.83;;;;;;;21.44;69.79;100683.94;5016376;28;20025;-76
2021/07/15 00:23:09;;;;;;;5.63;3.40;;;;;;;21.42;69.96;100690.91;5016060;28;20072;-76
2021/07/15 00:25:35;;;;;;;7.32;3.40;;;;;;;21.40;69.95;100676.94;5016350;28;20084;-76
2021/07/15 00:28:02;;;;;;;7.18;3.28;;;;;;;21.41;69.80;100678.69;5015710;28;20037;-76
2021/07/15 00:30:27;;;;;;;5.43;3.17;;;;;;;21.40;69.61;100677.84;5014958;28;20036;-76
2021/07/15 00:32:53;;;;;;;4.47;2.60;;;;;;;21.38;69.77;100673.44;5016170;28;20378;-76
2021/07/15 00:35:19;;;;;;;5.03;3.08;;;;;;;21.34;70.06;100658.56;5015021;28;20030;-76
2021/07/15 00:37:44;;;;;;;4.53;2.88;;;;;;;21.34;70.26;100664.69;4998474;28;20025;-76
2021/07/15 00:40:13;;;;;;;6.28;3.22;;;;;;;21.32;70.05;100655.97;4998628;28;20022;-76
2021/07/15 00:42:39;;;;;;;12.68;3.25;;;;;;;21.30;70.23;100649.84;4998528;28;20033;-76
2021/07/15 00:45:07;;;;;;;6.25;2.97;;;;;;;21.28;70.18;100647.19;4998380;28;20021;-76
2021/07/15 00:47:34;;;;;;;8.25;3.25;;;;;;;21.26;70.25;100633.22;5015976;28;20033;-77
2021/07/15 00:50:00;;;;;;;8.13;3.40;;;;;;;21.27;70.32;100640.22;5014622;28;20472;-76
2021/07/15 00:52:26;;;;;;;7.53;3.40;;;;;;;21.28;70.47;100644.56;4998324;28;20040;-77
2021/07/15 00:54:51;;;;;;;5.95;3.00;;;;;;;21.29;70.50;100632.38;4998187;28;20078;-77
2021/07/15 00:57:17;;;;;;;4.40;2.72;;;;;;;21.28;70.43;100636.72;4998428;28;20030;-76
2021/07/15 00:59:43;;;;;;;6.10;2.90;;;;;;;21.29;70.62;100633.22;4998097;28;20391;-76
2021/07/15 01:02:09;;;;;;;5.15;2.53;;;;;;;21.31;70.50;100621.00;4998137;28;20482;-76
2021/07/15 01:04:34;;;;;;;5.05;2.72;;;;;;;21.33;70.61;100620.16;4997957;28;20034;-76
2021/07/15 01:07:00;;;;;;;6.00;2.72;;;;;;;21.33;70.54;100622.78;5014393;28;20368;-76
2021/07/15 01:09:26;;;;;;;6.80;2.65;;;;;;;21.30;70.45;100619.25;5014415;28;20494;-76
2021/07/15 01:12:13;;;;;;;4.93;2.78;;;;;;;21.27;70.42;100629.72;5015523;28;20025;-76
2021/07/15 01:15:06;;;;;;;3.60;2.20;;;;;;;21.22;70.62;100631.44;4997639;28;20280;-76
2021/07/15 01:18:07;;;;;;;5.70;2.55;;;;;;;21.21;70.79;100640.19;4996656;28;20433;-76
2021/07/15 01:20:57;;;;;;;5.38;2.83;;;;;;;21.22;70.49;100639.31;4997836;28;20073;-76
2021/07/15 01:23:43;;;;;;;3.75;2.83;;;;;;;21.16;70.48;100641.91;5015081;28;20439;-77
2021/07/15 01:26:46;;;;;;;6.07;2.67;;;;;;;21.10;71.06;100639.25;4997739;28;20060;-77
2021/07/15 01:29:55;;;;;;;7.53;3.13;;;;;;;21.08;70.97;100639.22;5015065;28;20095;-76
2021/07/15 01:32:22;;;;;;;9.02;2.67;;;;;;;21.06;70.86;100640.09;5006843;28;20037;-76
2021/07/15 01:34:50;;;;;;;7.50;2.92;;;;;;;21.02;71.11;100634.84;4997372;28;20025;-76
2021/07/15 01:37:16;;;;;;;8.35;2.75;;;;;;;20.99;71.25;100637.44;4997812;28;20411;-76
2021/07/15 01:39:44;;;;;;;6.30;2.97;;;;;;;21.02;70.58;100642.69;4997570;28;20033;-76
2021/07/15 01:42:12;;;;;;;8.40;3.22;;;;;;;21.01;70.64;100638.31;4997382;28;20438;-76
2021/07/15 01:44:39;;;;;;;9.43;2.80;;;;;;;21.01;70.46;100638.31;5014813;28;20026;-76
2021/07/15 01:47:05;;;;;;;11.73;3.55;;;;;;;20.93;70.96;100645.25;4980889;28;20486;-76
2021/07/15 01:49:31;;;;;;;7.60;3.20;;;;;;;20.87;71.09;100655.69;4980894;28;20034;-76
2021/07/15 01:51:59;;;;;;;5.72;3.10;;;;;;;20.79;71.21;100649.53;4997381;28;20546;-76
2021/07/15 01:54:26;;;;;;;8.32;3.05;;;;;;;20.75;71.63;100655.56;5014688;28;20033;-76
2021/07/15 01:56:52;;;;;;;6.15;3.03;;;;;;;20.71;71.46;100660.78;4997114;28;20137;-77
2021/07/15 01:59:20;;;;;;;5.57;2.95;;;;;;;20.71;71.65;100666.03;5014800;28;20050;-76
2021/07/15 02:01:47;;;;;;;5.90;3.50;;;;;;;20.72;71.23;100662.53;4996728;28;20494;-76
2021/07/15 02:04:14;;;;;;;9.38;2.67;;;;;;;20.69;71.70;100666.84;5029738;28;20049;-76
2021/07/15 02:06:41;;;;;;;10.65;3.00;;;;;;;20.75;71.15;100660.81;5013256;28;20387;-76
2021/07/15 02:09:09;;;;;;;4.82;2.22;;;;;;;20.72;71.70;100666.88;5013212;28;20075;-76
2021/07/15 02:11:34;;;;;;;4.35;2.65;;;;;;;20.82;71.29;100673.09;5014380;28;20116;-75
2021/07/15 02:14:05;;;;;;;7.95;2.55;;;;;;;20.77;71.59;100674.78;5014292;28;20097;-76
2021/07/15 02:16:32;;;;;;;8.15;2.92;;;;;;;20.66;71.85;100678.16;5014247;28;20464;-76
2021/07/15 02:18:59;;;;;;;6.57;2.58;;;;;;;20.70;71.79;100679.97;5014171;28;20033;-76
2021/07/15 02:21:26;;;;;;;3.00;2.22;;;;;;;20.78;71.57;100677.44;4996611;28;20028;-76
2021/07/15 02:23:52;;;;;;;8.63;2.60;;;;;;;20.88;70.95;100678.38;5009691;28;20054;-76
2021/07/15 02:26:18;;;;;;;7.90;2.60;;;;;;;20.82;71.23;100688.81;5009596;28;20018;-73
2021/07/15 02:28:43;;;;;;;8.25;2.65;;;;;;;20.90;70.88;100694.97;5009155;28;20079;-72
2021/07/15 02:31:15;;;;;;;9.20;2.20;;;;;;;20.95;70.71;100685.41;5009179;28;20030;-72
2021/07/15 02:33:45;;;;;;;8.30;2.55;;;;;;;20.95;70.84;100693.25;5009323;28;20022;-72
2021/07/15 02:36:11;;;;;;;3.83;1.92;;;;;;;20.96;70.59;100702.88;4993125;28;20053;-72
2021/07/15 02:38:37;;;;;;;6.63;1.85;;;;;;;20.95;70.71;100711.59;5025728;28;20475;-72
2021/07/15 02:41:03;;;;;;;9.90;2.00;;;;;;;20.96;70.63;100708.13;5009286;28;20032;-72
2021/07/15 02:43:28;;;;;;;5.65;1.90;;;;;;;20.92;71.23;100705.44;5008791;28;20109;-72
2021/07/15 02:45:55;;;;;;;7.35;1.80;;;;;;;20.87;71.25;100713.28;4992408;28;20054;-72
2021/07/15 02:48:21;;;;;;;5.57;1.88;;;;;;;20.83;71.43;100716.75;5008639;28;20054;-72
2021/07/15 02:50:46;;;;;;;2.70;1.50;;;;;;;20.80;71.47;100711.47;4993449;28;20030;-72
2021/07/15 02:53:12;;;;;;;4.70;1.60;;;;;;;20.72;72.24;100720.13;4992146;28;20022;-72
2021/07/15 02:55:41;;;;;;;4.07;1.95;;;;;;;20.73;72.24;100720.97;4993381;28;20022;-72
2021/07/15 02:58:32;;;;;;;5.18;1.73;;;;;;;20.82;71.61;100728.06;4986873;28;20073;-72
2021/07/15 03:00:59;;;;;;;4.03;1.70;;;;;;;20.82;71.43;100735.94;4987041;28;20078;-72
2021/07/15 03:03:37;;;;;;;3.38;1.45;;;;;;;20.80;71.83;100743.75;4992194;28;20495;-75
2021/07/15 03:06:09;;;;;;;6.53;1.50;;;;;;;20.76;72.02;100735.84;4993371;28;20026;-76
2021/07/15 03:08:51;;;;;;;5.18;1.50;;;;;;;20.73;72.09;100721.88;5008612;28;20037;-76
2021/07/15 03:11:18;;;;;;;4.20;1.42;;;;;;;20.71;71.97;100707.88;4992415;28;20023;-75
2021/07/15 03:13:45;;;;;;;7.63;1.60;;;;;;;20.73;72.22;100710.50;4992109;28;20030;-76
2021/07/15 03:16:12;;;;;;;2.95;1.30;;;;;;;20.77;72.08;100716.66;5008375;28;20022;-76
2021/07/15 03:18:38;;;;;;;6.75;1.50;;;;;;;20.78;72.00;100723.66;4991821;28;20084;-76
2021/07/15 03:21:06;;;;;;;5.93;2.35;;;;;;;20.79;71.99;100730.66;4991557;28;20046;-76
2021/07/15 03:23:33;;;;;;;4.95;1.65;;;;;;;20.72;72.15;100725.34;5011108;28;20057;-76
2021/07/15 03:25:59;;;;;;;4.03;1.27;;;;;;;20.75;72.22;100707.91;4995063;28;20026;-76
2021/07/15 03:28:30;;;;;;;2.33;1.10;;;;;;;20.77;72.43;100700.94;4995106;28;20048;-75
2021/07/15 03:31:05;;;;;;;7.85;1.70;;;;;;;20.79;72.07;100694.03;5019326;28;20018;-75
2021/07/15 03:33:31;;;;;;;3.78;1.58;;;;;;;20.76;72.33;100700.06;4976185;28;20027;-76
2021/07/15 03:35:57;;;;;;;2.60;1.30;;;;;;;20.73;72.54;100695.69;4975918;28;20138;-76
2021/07/15 03:38:23;;;;;;;3.25;1.55;;;;;;;20.78;72.42;100702.72;4999540;28;20269;-76
2021/07/15 03:40:50;;;;;;;2.42;1.58;;;;;;;20.72;72.75;100709.66;4994723;28;20021;-76
2021/07/15 03:43:16;;;;;;;4.35;1.48;;;;;;;20.77;72.63;100716.66;4995181;28;20100;-76
2021/07/15 03:45:45;;;;;;;7.47;1.80;;;;;;;20.77;72.72;100727.13;4995481;28;20506;-76
2021/07/15 03:48:11;;;;;;;5.53;1.45;;;;;;;20.71;72.65;100734.06;4979363;28;20022;-76
2021/07/15 03:50:37;;;;;;;4.32;1.80;;;;;;;20.71;72.79;100738.41;4995141;28;20053;-76
2021/07/15 03:53:05;;;;;;;4.57;1.60;;;;;;;20.67;72.97;100747.09;4995041;28;20141;-76
2021/07/15 03:55:35;;;;;;;7.85;1.48;;;;;;;20.71;72.80;100741.91;4995121;28;20369;-76
2021/07/15 03:58:05;;;;;;;7.68;1.55;;;;;;;20.78;72.20;100744.59;4995377;28;20101;-75
2021/07/15 04:00:32;;;;;;;3.45;1.50;;;;;;;20.72;72.55;100746.28;4995228;28;20355;-76
2021/07/15 04:03:01;;;;;;;2.17;1.60;;;;;;;20.75;72.30;100739.31;4995198;28;20029;-76
2021/07/15 04:05:29;;;;;;;2.95;1.65;;;;;;;20.75;72.69;100741.94;4978350;28;20029;-75
2021/07/15 04:07:55;;;;;;;3.67;1.67;;;;;;;20.63;72.54;100740.94;4995173;28;20494;-76
2021/07/15 04:10:21;;;;;;;3.35;1.40;;;;;;;20.60;72.57;100746.13;4994999;28;20025;-76
2021/07/15 04:12:49;;;;;;;4.60;1.25;;;;;;;20.65;72.61;100744.44;5012268;28;20360;-76
2021/07/15 04:15:19;;;;;;;7.55;1.58;;;;;;;20.68;72.50;100739.28;5011182;28;20176;-76
2021/07/15 04:17:50;;;;;;;2.95;1.23;;;;;;;20.59;72.65;100733.91;5010359;28;20037;-76
2021/07/15 04:20:18;;;;;;;3.30;1.70;;;;;;;20.58;73.08;100745.25;5018020;28;20164;-76
2021/07/15 04:22:49;;;;;;;2.05;1.38;;;;;;;20.62;73.09;100744.41;4994604;28;20025;-76
2021/07/15 04:25:17;;;;;;;3.30;1.42;;;;;;;20.60;73.07;100751.38;4994413;28;20045;-75
2021/07/15 04:27:44;;;;;;;3.22;1.40;;;;;;;20.61;73.06;100747.91;5010861;28;20026;-75
2021/07/15 04:30:11;;;;;;;3.85;1.52;;;;;;;20.67;73.06;100747.09;5010528;28;20022;-76
2021/07/15 04:32:52;;;;;;;3.10;1.65;;;;;;;20.69;72.82;100750.59;4994395;28;20022;-76
2021/07/15 04:35:18;;;;;;;4.47;1.30;;;;;;;20.72;72.69;100761.97;5002581;28;20407;-76
2021/07/15 04:37:44;;;;;;;2.80;1.20;;;;;;;20.80;72.19;100753.34;4994248;28;20390;-76
2021/07/15 04:40:13;;;;;;;1.95;1.33;;;;;;;20.81;72.24;100749.88;4994349;28;20101;-76
2021/07/15 04:42:39;;;;;;;9.40;1.75;;;;;;;20.85;72.38;100751.66;5011808;28;20443;-76
2021/07/15 04:45:08;;;;;;;4.38;1.60;;;;;;;20.87;72.48;100744.69;4994142;28;20030;-76
2021/07/15 04:47:34;;;;;;;4.30;1.55;;;;;;;20.84;72.28;100734.19;4994220;28;20041;-76
2021/07/15 04:49:59;;;;;;;4.60;1.48;;;;;;;20.86;72.27;100737.69;5010608;28;20022;-76
2021/07/15 04:52:26;;;;;;;3.65;1.70;;;;;;;20.92;72.61;100743.00;4996018;28;20053;-76
2021/07/15 04:54:52;;;;;;;3.90;1.90;;;;;;;20.94;72.55;100741.25;4997651;28;20025;-75
2021/07/15 04:57:19;;;;;;;6.90;2.40;;;;;;;20.97;72.21;100746.50;5014122;28;20506;-75
2021/07/15 04:59:45;;;;;;;7.43;2.42;;;;;;;20.96;72.23;100744.75;4997746;28;20028;-76
2021/07/15 05:02:10;;;;;;;5.07;2.67;;;;;;;20.94;72.42;100740.38;5014207;28;20022;-76
2021/07/15 05:04:37;;;;;;;7.00;2.95;;;;;;;20.96;72.61;100743.88;5014010;28;20030;-76
2021/07/15 05:07:04;;;;;;;5.95;3.15;;;;;;;20.99;72.61;100739.56;5005641;28;20115;-77
2021/07/15 05:09:29;;;;;;;7.07;3.80;;;;;;;21.01;72.52;100740.44;4997528;28;20092;-77
2021/07/15 05:11:55;;;;;;;8.40;5.07;;;;;;;21.05;72.59;100741.31;5015076;28;20021;-77
2021/07/15 05:14:20;;;;;;;7.95;5.30;;;;;;;21.01;71.79;100732.59;5013784;28;20022;-76
2021/07/15 05:16:46;;;;;;;7.93;5.45;;;;;;;21.06;72.23;100736.97;5021949;28;20030;-77
2021/07/15 05:19:11;;;;;;;14.52;6.68;;;;;;;21.08;72.18;100741.34;5014935;28;20030;-76
2021/07/15 05:21:37;;;;;;;12.48;6.05;;;;;;;21.12;72.34;100745.75;5013691;28;20029;-77
2021/07/15 05:24:02;;;;;;;12.57;6.15;;;;;;;21.16;71.71;100752.75;5014593;28;20080;-77
2021/07/15 05:26:27;;;;;;;10.13;5.75;;;;;;;21.23;71.76;100764.16;5013564;28;20029;-77
2021/07/15 05:28:54;;;;;;;12.70;6.07;;;;;;;21.23;71.65;100764.16;4997163;28;20026;-77
2021/07/15 05:31:21;;;;;;;8.85;5.85;;;;;;;21.24;72.15;100763.28;4997243;28;20053;-76
2021/07/15 05:33:47;;;;;;;11.00;5.68;;;;;;;21.23;71.73;100764.16;5014536;28;20024;-76
2021/07/15 05:36:13;;;;;;;8.77;5.43;;;;;;;21.22;72.12;100767.66;4997161;28;20018;-76
2021/07/15 05:38:42;;;;;;;9.00;5.57;;;;;;;21.24;72.04;100767.66;5014608;28;20036;-76
2021/07/15 05:41:09;;;;;;;6.68;5.13;;;;;;;21.25;71.96;100759.81;4980994;28;20021;-76
2021/07/15 05:43:35;;;;;;;9.27;4.75;;;;;;;21.25;71.82;100765.06;4996869;28;20158;-76
2021/07/15 05:46:02;;;;;;;7.10;4.57;;;;;;;21.26;71.57;100764.19;5014283;28;20026;-77
2021/07/15 05:48:29;;;;;;;6.35;4.47;;;;;;;21.28;71.94;100766.81;4978137;28;20026;-77
2021/07/15 05:50:55;;;;;;;11.30;4.43;;;;;;;21.29;71.79;100761.59;5014332;28;20022;-76
2021/07/15 05:53:20;;;;;;;6.88;5.07;;;;;;;21.34;71.48;100765.97;4996740;28;20021;-76
2021/07/15 05:55:47;;;;;;;8.05;5.00;;;;;;;21.33;71.39;100769.47;5012992;28;20438;-76
2021/07/15 05:58:13;;;;;;;9.63;5.20;;;;;;;21.32;71.29;100768.59;5013394;28;20045;-76
2021/07/15 06:00:38;;;;;;;6.38;4.20;;;;;;;21.26;71.63;100764.19;5014634;28;20084;-76
2021/07/15 06:03:04;;;;;;;8.52;4.45;;;;;;;21.31;71.98;100767.72;5012844;28;20497;-76
2021/07/15 06:05:30;;;;;;;10.95;6.35;;;;;;;21.35;71.48;100783.44;5013079;28;20076;-76
2021/07/15 06:07:59;;;;;;;10.90;5.90;;;;;;;21.35;70.97;100788.69;5014404;28;20030;-76
2021/07/15 06:10:27;;;;;;;9.32;5.60;;;;;;;21.31;71.85;100788.66;5014352;28;20044;-76
2021/07/15 06:12:52;;;;;;;7.03;4.22;;;;;;;21.36;71.85;100806.16;4996846;28;20399;-76
2021/07/15 06:15:18;;;;;;;9.75;4.88;;;;;;;21.38;72.33;100814.91;5014351;28;20467;-76
2021/07/15 06:17:44;;;;;;;10.98;5.15;;;;;;;21.40;71.51;100813.16;4996663;28;20542;-76
2021/07/15 06:20:13;;;;;;;8.73;5.22;;;;;;;21.43;71.76;100813.19;5013047;28;20113;-76
2021/07/15 06:22:43;;;;;;;10.13;4.47;;;;;;;21.46;71.51;100818.44;4980699;28;20026;-76
2021/07/15 06:25:09;;;;;;;13.98;6.20;;;;;;;21.46;71.15;100813.22;5013816;28;20134;-76
2021/07/15 06:27:40;;;;;;;10.48;5.38;;;;;;;21.45;71.04;100811.47;4996508;28;20045;-76
2021/07/15 06:30:10;;;;;;;8.48;4.53;;;;;;;21.48;71.18;100810.63;5013838;28;20436;-77
2021/07/15 06:32:35;;;;;;;13.50;5.38;;;;;;;21.54;71.85;100816.75;5013933;28;20030;-77
2021/07/15 06:35:03;;;;;;;10.98;5.25;;;;;;;21.59;71.01;100809.81;4996132;28;20030;-76
2021/07/15 06:37:34;;;;;;;7.25;4.25;;;;;;;21.65;70.83;100813.38;4996361;28;20024;-76
2021/07/15 06:40:01;;;;;;;8.63;4.88;;;;;;;21.67;71.42;100806.38;4996148;28;20080;-76
2021/07/15 06:42:26;;;;;;;13.45;5.53;;;;;;;21.70;70.97;100811.66;4980033;28;20124;-76
2021/07/15 06:44:52;;;;;;;8.55;5.32;;;;;;;21.74;71.78;100810.81;4996103;28;20061;-76
2021/07/15 06:47:18;;;;;;;9.45;5.47;;;;;;;21.77;72.10;100817.81;5012166;28;20029;-75
2021/07/15 06:49:43;;;;;;;11.23;7.28;;;;;;;21.79;70.62;100811.72;5010858;28;20407;-76
2021/07/15 06:52:09;;;;;;;9.98;6.32;;;;;;;21.78;70.69;100823.09;5012079;28;20037;-76
2021/07/15 06:54:35;;;;;;;10.02;7.05;;;;;;;21.80;70.76;100823.97;4994426;28;20034;-75
2021/07/15 06:57:00;;;;;;;10.93;6.22;;;;;;;21.91;70.85;100836.25;4994461;28;20177;-75
2021/07/15 06:59:26;;;;;;;11.70;6.30;;;;;;;21.90;70.66;100830.13;5010804;28;20033;-75
2021/07/15 07:01:51;;;;;;;11.68;7.50;;;;;;;21.94;69.01;100831.03;4993920;28;20042;-76
2021/07/15 07:04:17;;;;;;;11.20;6.65;;;;;;;21.96;69.79;100834.53;5011285;28;20034;-77
2021/07/15 07:06:42;;;;;;;13.77;6.95;;;;;;;22.03;71.93;100841.56;4993949;28;20084;-76
2021/07/15 07:09:08;;;;;;;9.35;6.70;;;;;;;22.08;70.18;100837.22;5026984;28;20116;-76
2021/07/15 07:11:34;;;;;;;10.68;6.93;;;;;;;22.14;70.86;100828.47;5010425;28;20014;-77
2021/07/15 07:13:59;;;;;;;10.02;6.93;;;;;;;22.13;70.10;100830.25;4991522;28;20101;-77
2021/07/15 07:16:24;;;;;;;12.60;7.20;;;;;;;22.18;69.04;100831.13;5010524;28;20066;-76
2021/07/15 07:18:50;;;;;;;11.63;8.05;;;;;;;22.26;70.24;100827.66;5010105;28;20664;-76
2021/07/15 07:21:15;;;;;;;10.00;7.50;;;;;;;22.25;68.35;100842.50;5010180;28;20018;-77
2021/07/15 07:23:41;;;;;;;11.82;7.40;;;;;;;22.34;68.81;100846.94;5011163;28;20042;-77
2021/07/15 07:26:07;;;;;;;10.63;7.43;;;;;;;22.42;67.70;100845.22;5011366;28;20026;-77
2021/07/15 07:28:32;;;;;;;11.00;6.55;;;;;;;22.42;69.11;100842.59;4993908;28;20105;-77
2021/07/15 07:30:58;;;;;;;8.25;6.72;;;;;;;22.45;67.76;100840.00;5011241;28;20109;-77
2021/07/15 07:33:23;;;;;;;9.90;6.18;;;;;;;22.46;67.37;100841.75;5011078;28;20030;-77
2021/07/15 07:35:49;;;;;;;10.45;6.15;;;;;;;22.44;67.17;100843.47;4993604;28;20056;-77
2021/07/15 07:38:14;;;;;;;8.82;6.07;;;;;;;22.48;68.70;100844.41;5001482;28;20029;-77
2021/07/15 07:40:40;;;;;;;13.40;6.45;;;;;;;22.43;66.32;100840.84;4989673;28;20036;-77
2021/07/15 07:43:05;;;;;;;9.30;6.25;;;;;;;22.42;68.07;100842.59;4995225;28;20061;-77
2021/07/15 07:45:31;;;;;;;11.80;6.30;;;;;;;22.46;66.42;100847.00;5011664;28;20049;-77
2021/07/15 07:47:56;;;;;;;9.93;6.55;;;;;;;22.47;65.68;100843.50;4994562;28;20040;-77
2021/07/15 07:50:22;;;;;;;10.50;7.45;;;;;;;22.54;64.75;100849.66;5010873;28;20022;-77
2021/07/15 07:52:48;;;;;;;8.35;6.35;;;;;;;22.64;66.81;100840.06;5011845;28;20021;-78
2021/07/15 07:55:14;;;;;;;9.40;6.80;;;;;;;22.72;64.54;100837.47;5012025;28;20029;-77
2021/07/15 07:57:40;;;;;;;10.88;7.07;;;;;;;22.81;66.95;100842.72;4994474;28;20047;-78
2021/07/15 08:00:10;;;;;;;8.73;6.75;;;;;;;22.90;64.58;100831.38;4994621;28;20021;-78
2021/07/15 08:02:35;;;;;;;;;;;;;;;23.02;63.59;100836.63;5011145;28;20108;-77
2021/07/15 08:05:05;;;;;;;10.32;6.47;;;;;;;23.09;65.50;100831.38;5017715;28;19995;-77
2021/07/15 08:07:32;;;;;;;8.05;6.22;;;;;;;23.25;66.02;100841.03;4992498;28;20062;-77
2021/07/15 08:09:59;;;;;;;9.25;6.78;;;;;;;23.37;65.71;100847.16;4994404;28;20029;-78
2021/07/15 08:12:25;;;;;;;11.20;5.63;;;;;;;23.52;67.06;100841.91;5011035;28;20053;-78
2021/07/15 08:14:50;;;;;;;7.35;5.38;;;;;;;23.55;65.67;100841.88;5008108;28;20026;-78
2021/07/15 08:17:16;;;;;;;9.68;5.75;;;;;;;23.56;64.81;100843.63;5010925;28;20026;-78
2021/07/15 08:19:42;;;;;;;8.40;5.30;;;;;;;23.53;64.74;100853.31;5011001;28;20034;-78
2021/07/15 08:22:07;;;;;;;11.65;5.32;;;;;;;23.46;63.34;100857.66;5012107;28;20021;-78
2021/07/15 08:24:33;;;;;;;7.85;4.88;;;;;;;23.43;65.04;100857.69;4994141;28;20046;-78
2021/07/15 08:26:58;;;;;;;9.75;5.25;;;;;;;23.41;64.87;100859.44;5012339;28;20045;-78
2021/07/15 08:32:46;;;;;;;9.75;5.25;;;;;;;23.36;64.58;100866.44;5011002;28;20064;-78
2021/07/15 08:35:12;;;;;;;6.57;4.43;;;;;;;23.43;64.98;100869.09;5013224;28;20050;-79
2021/07/15 08:37:38;;;;;;;6.88;5.38;;;;;;;23.47;61.70;100864.69;5029789;28;20051;-79
2021/07/15 08:40:05;;;;;;;7.30;5.28;;;;;;;23.58;65.37;100868.16;5012552;28;20026;-79
2021/07/15 08:42:31;;;;;;;6.78;4.90;;;;;;;23.69;64.97;100865.53;4978888;28;20029;-77
2021/07/15 08:45:03;;;;;;;6.53;4.75;;;;;;;23.74;63.53;100873.41;4966191;28;20021;-77
2021/07/15 08:47:29;;;;;;;6.95;4.95;;;;;;;23.69;62.29;100864.66;5012929;28;20471;-80
2021/07/15 08:49:56;;;;;;;6.72;4.78;;;;;;;23.64;63.00;100854.16;5009275;28;20033;-78
2021/07/15 08:52:21;;;;;;;6.85;4.70;;;;;;;23.62;63.32;100854.16;4998707;28;20551;-79
2021/07/15 08:54:59;;;;;;;6.60;4.43;;;;;;;23.62;63.71;100854.16;5013686;28;20113;-79
2021/07/15 08:57:24;;;;;;;8.02;5.20;;;;;;;23.70;64.92;100861.16;5011285;28;20538;-78
2021/07/15 08:59:50;;;;;;;6.55;5.13;;;;;;;23.94;63.47;100862.84;4995729;28;20105;-77
2021/07/15 09:02:20;;;;;;;7.45;4.72;;;;;;;24.00;63.40;100864.63;4995633;28;20033;-77
2021/07/15 09:04:46;;;;;;;6.63;4.32;;;;;;;23.99;59.53;100857.59;5012976;28;20063;-78
2021/07/15 09:07:13;;;;;;;5.90;4.50;;;;;;;24.00;61.56;100864.63;4978222;28;20046;-78
2021/07/15 09:09:39;;;;;;;6.10;4.13;;;;;;;24.10;60.42;100869.00;5012063;28;20025;-78
2021/07/15 09:12:05;;;;;;;6.60;4.78;;;;;;;24.25;60.84;100869.81;4995996;28;20018;-77
2021/07/15 09:14:43;;;;;;;8.95;4.82;;;;;;;24.47;59.81;100871.47;4995902;28;20026;-78
2021/07/15 09:17:09;;;;;;;8.30;4.57;;;;;;;24.48;58.32;100873.22;4996007;28;20129;-77
2021/07/15 09:19:41;;;;;;;6.53;4.93;;;;;;;24.39;60.40;100870.63;5013019;28;20074;-78
2021/07/15 09:22:11;;;;;;;7.03;4.25;;;;;;;24.31;60.23;100881.16;4993529;28;20101;-77
2021/07/15 09:24:39;;;;;;;4.68;3.67;;;;;;;24.25;59.35;100885.59;5010183;28;20076;-77
2021/07/15 09:27:15;;;;;;;8.43;3.63;;;;;;;24.20;60.24;100878.59;4995736;28;20717;-77
2021/07/15 09:29:42;;;;;;;6.82;3.88;;;;;;;24.15;60.63;100872.47;4995618;28;20177;-77
2021/07/15 09:32:09;;;;;;;7.40;4.22;;;;;;;24.07;60.09;100871.63;5013478;28;20026;-78
2021/07/15 09:34:36;;;;;;;7.18;4.65;;;;;;;24.33;61.30;100873.28;5011874;28;20072;-78
2021/07/15 09:37:15;;;;;;;5.38;3.80;;;;;;;24.78;57.59;100876.59;5012592;28;20026;-78
2021/07/15 09:39:43;;;;;;;;;;;;;;;24.78;57.80;100873.94;5011213;28;20034;-76
2021/07/15 09:45:31;;;;;;;7.13;3.88;;;;;;;25.13;56.86;100871.97;5007730;28;20142;-78
2021/07/15 09:47:57;;;;;;;5.97;3.60;;;;;;;25.52;55.63;100859.38;5013078;28;20034;-77
2021/07/15 09:50:26;;;;;;;5.43;3.95;;;;;;;25.92;57.20;100862.50;5012125;28;20026;-78
2021/07/15 09:52:53;;;;;;;6.43;3.72;;;;;;;26.27;54.24;100865.63;5012225;28;20042;-77
2021/07/15 09:55:26;;;;;;;5.85;3.72;;;;;;;26.53;53.94;100866.16;5011334;28;20044;-78
2021/07/15 09:58:37;;;;;;;9.73;4.00;;;;;;;26.69;54.66;100860.66;4990130;28;20116;-81
2021/07/15 10:01:11;;;;;;;6.65;3.70;;;;;;;26.43;54.08;100875.09;5011342;28;20117;-78
2021/07/15 10:03:40;;;;;;;6.95;4.20;;;;;;;26.14;54.99;100878.06;4996087;28;20032;-78
2021/07/15 10:06:07;;;;;;;6.75;4.20;;;;;;;25.88;55.99;100866.91;4996015;28;20018;-77
2021/07/15 10:08:34;;;;;;;6.03;3.70;;;;;;;25.64;56.26;100879.47;5012381;28;20033;-78
2021/07/15 10:11:28;;;;;;;5.60;4.25;;;;;;;25.41;54.17;100891.97;4996194;28;20017;-77
2021/07/15 10:14:01;;;;;;;8.25;4.30;;;;;;;25.25;56.88;100881.53;4993960;28;20395;-75
2021/07/15 10:16:31;;;;;;;5.63;4.28;;;;;;;25.27;55.84;100879.78;4979652;28;20490;-77
2021/07/15 10:18:57;;;;;;;8.15;3.95;;;;;;;25.53;54.79;100881.34;5011917;28;20487;-78
2021/07/15 10:21:34;;;;;;;5.38;3.58;;;;;;;25.59;56.45;100883.91;5013529;28;20024;-78
2021/07/15 10:24:14;;;;;;;5.75;4.40;;;;;;;25.99;54.09;100887.06;5011647;28;20046;-77
2021/07/15 10:26:46;;;;;;;7.25;3.85;;;;;;;26.36;54.39;100890.13;5011467;28;20061;-77
2021/07/15 10:29:17;;;;;;;6.20;4.35;;;;;;;26.69;52.24;100887.06;4993779;28;20030;-77
2021/07/15 10:31:43;;;;;;;6.38;3.90;;;;;;;26.96;51.96;100884.94;5013137;28;20045;-78
2021/07/15 10:34:09;;;;;;;4.35;3.33;;;;;;;27.20;50.50;100866.97;5012774;28;20030;-77
2021/07/15 10:36:37;;;;;;;4.70;3.30;;;;;;;27.16;51.51;100875.88;4993099;28;20484;-78
2021/07/15 10:39:02;;;;;;;5.55;3.83;;;;;;;26.92;52.48;100872.69;4992901;28;20049;-77
2021/07/15 10:41:28;;;;;;;7.15;4.13;;;;;;;26.65;53.44;100878.34;5010887;28;20021;-78
2021/07/15 10:43:54;;;;;;;5.50;4.15;;;;;;;26.43;53.94;100875.09;5011135;28;20029;-77
2021/07/15 10:46:21;;;;;;;5.65;4.10;;;;;;;26.21;52.76;100870.09;4976291;28;20093;-76
2021/07/15 10:48:48;;;;;;;6.13;4.35;;;;;;;26.02;54.70;100872.03;5015329;28;20510;-77
2021/07/15 10:51:14;;;;;;;5.32;4.00;;;;;;;25.92;55.38;100884.44;4993709;28;20014;-77
2021/07/15 10:53:40;;;;;;;5.65;4.40;;;;;;;25.88;56.12;100877.47;5011266;28;20038;-80
2021/07/15 10:56:08;;;;;;;5.88;4.20;;;;;;;25.89;55.98;100884.50;5009490;28;20483;-78
2021/07/15 10:58:43;;;;;;;5.85;4.13;;;;;;;26.09;55.05;100880.78;4993469;28;20040;-78
2021/07/15 11:01:10;;;;;;;7.38;4.30;;;;;;;26.34;54.84;100885.78;5009930;28;20017;-76
2021/07/15 11:03:36;;;;;;;5.93;4.28;;;;;;;26.60;54.28;100889.84;4993508;28;20034;-78
2021/07/15 11:06:02;;;;;;;5.38;3.90;;;;;;;26.76;54.50;100883.44;4992822;28;20022;-77
2021/07/15 11:09:00;;;;;;;7.68;4.50;;;;;;;27.07;52.67;100877.75;4993078;28;20045;-76
2021/07/15 11:11:33;;;;;;;5.93;3.78;;;;;;;27.27;52.37;100873.91;4979626;28;20045;-79
2021/07/15 11:13:59;;;;;;;5.55;4.38;;;;;;;27.45;53.00;100871.84;4992997;28;20030;-78
2021/07/15 11:16:57;;;;;;;5.82;3.95;;;;;;;27.55;49.72;100865.53;5010929;28;20494;-78
2021/07/15 11:20:00;;;;;;;5.95;4.13;;;;;;;27.38;50.10;100879.88;4977681;28;20041;-81
2021/07/15 11:22:38;;;;;;;9.43;4.53;;;;;;;27.24;52.26;100880.09;5009990;28;20104;-79
2021/07/15 11:25:06;;;;;;;6.45;4.80;;;;;;;27.01;53.29;100893.69;5010060;28;20129;-81
2021/07/15 11:27:35;;;;;;;5.70;4.20;;;;;;;26.86;53.80;100899.19;4975918;28;20076;-79
2021/07/15 11:30:01;;;;;;;7.10;4.43;;;;;;;26.73;53.52;100899.34;4992805;28;20072;-81
2021/07/15 11:32:27;;;;;;;5.10;4.18;;;;;;;26.61;53.75;100904.81;5009221;28;20030;-80
2021/07/15 11:34:55;;;;;;;5.65;4.20;;;;;;;26.59;53.64;100896.03;4984587;28;20049;-78
2021/07/15 11:37:34;;;;;;;6.28;4.50;;;;;;;26.77;53.91;100901.03;4992198;28;20515;-82